Airfield :
LOGIN :

Register | Disclaimer

   EN    FR    IT 

 










Legend :    VFR   Marginal VFR   IFR   Intensive IFR   Very Intensive IFR
Visi :
Ceiling :
>= 8 km
>= 3000ft
5 to 8 km
1000 to 3000 ft
1500m to 5 km
500 to 1000 ft
800 to 1500m
200 to 500 ft
< 800m
< 200 ft
Symbols :   Thunderstorms  Fog  Heavy snow  Heavy precipitations  Wind > 20 kt
SIGMETs :     Misc.  Thunderstorms  Icing  Turbulence  Mountain Waves  Volcanic Ashes







- Airport Elevation : 79 ft
- IATA code : NSY


LICZ - Sigonella (Mil) Catania

CURRENT METAR :
  • 252055Z 36002KT CAVOK 13/13 Q1021 RMK SKC VIS MIN 9999 WIND THR28 /////KT WIND THR10 24003KT A3015 BLU

EXPIRED METARs :
  • 251955Z 20004KT CAVOK 13/13 Q1020 RMK SKC VIS MIN 9999 WIND THR28 /////KT WIND THR10 19003KT A3015 BLU
  • 251855Z 14004KT CAVOK 14/14 Q1020 RMK SKC VIS MIN 9999 WIND THR28 /////KT WIND THR10 15004KT A3014 BLU

TAF TAF LICZ
Valid from the 25 at 21:00 until the 26 at 06:00 UTC


252000Z 2521/2606 VRB05KT 9999 FEW020
No reported NOTAMs for that airfield.



MET'MAP, your aeronautical weather chart ! - Copyright ORBIFLY December 2007 - Disclaimer

ORBIFLY MET'MAP TEAM :

Programming & Development : Alexandra Zaïnal
Concept & Development : Baudouin d'Aumeries
Co-Development & Prog : Marc-Olivier Méhu
Technical & hardware support : Manuel Goepfert

Contact : metmap@orbifly.com




SOURCES & CREDITS :

   NOAA